Terminal Aerodrome Forecast
Issued by NWS Omaha/Valley, NE

Home | Current Version | Previous Version | Text Only | Print | Product List | Glossary On
Versions: 1 2 3 4 5 6 7 8 9 10 11 12 13 14 15 16 17 18 19 20
000
FTUS43 KOAX 242008 AAA
TAFOMA
TAF AMD
KOMA 242008Z 2420/2518 14009KT P6SM BKN060
      TEMPO 2420/2423 3SM TSRA BKN025CB
     FM250000 18005KT P6SM BKN090
     FM250600 24008KT P6SM BKN090
     FM250800 32009KT P6SM SCT250=

USA.gov is the U.S. government's official web portal to all federal, state and local government web resources and services.